sensor_id;sensor_type;location;lat;lon;timestamp;temperature;humidity
21189;DHT22;39071;52.420;20.896;2022-08-01T00:00:38;16.90;99.90
21189;DHT22;39071;52.420;20.896;2022-08-01T00:03:04;16.90;99.90
21189;DHT22;39071;52.420;20.896;2022-08-01T00:05:30;16.90;99.90
21189;DHT22;39071;52.420;20.896;2022-08-01T00:07:56;16.90;99.90
21189;DHT22;39071;52.420;20.896;2022-08-01T00:10:21;16.90;99.90
21189;DHT22;39071;52.420;20.896;2022-08-01T00:12:47;16.80;99.90
21189;DHT22;39071;52.420;20.896;2022-08-01T00:15:15;16.90;99.90
21189;DHT22;39071;52.420;20.896;2022-08-01T00:17:42;16.80;99.90
21189;DHT22;39071;52.420;20.896;2022-08-01T00:20:10;16.80;99.90
21189;DHT22;39071;52.420;20.896;2022-08-01T00:22:36;16.80;99.90
21189;DHT22;39071;52.420;20.896;2022-08-01T00:25:04;16.70;99.90
21189;DHT22;39071;52.420;20.896;2022-08-01T00:27:30;16.70;99.90
21189;DHT22;39071;52.420;20.896;2022-08-01T00:29:55;16.70;99.90
21189;DHT22;39071;52.420;20.896;2022-08-01T00:32:21;16.70;99.90
21189;DHT22;39071;52.420;20.896;2022-08-01T00:34:48;16.60;99.90
21189;DHT22;39071;52.420;20.896;2022-08-01T00:37:13;16.60;99.90
21189;DHT22;39071;52.420;20.896;2022-08-01T00:39:39;16.60;99.90
21189;DHT22;39071;52.420;20.896;2022-08-01T00:42:09;16.50;99.90
21189;DHT22;39071;52.420;20.896;2022-08-01T00:44:36;16.50;99.90
21189;DHT22;39071;52.420;20.896;2022-08-01T00:47:02;16.50;99.90
21189;DHT22;39071;52.420;20.896;2022-08-01T00:49:27;16.40;99.90
21189;DHT22;39071;52.420;20.896;2022-08-01T00:51:54;16.50;99.90
21189;DHT22;39071;52.420;20.896;2022-08-01T00:54:20;16.40;99.90
21189;DHT22;39071;52.420;20.896;2022-08-01T00:56:45;16.40;99.90
21189;DHT22;39071;52.420;20.896;2022-08-01T00:59:11;16.40;99.90
21189;DHT22;39071;52.420;20.896;2022-08-01T01:01:37;16.40;99.90
21189;DHT22;39071;52.420;20.896;2022-08-01T01:04:03;16.40;99.90
21189;DHT22;39071;52.420;20.896;2022-08-01T01:09:51;16.40;99.90
21189;DHT22;39071;52.420;20.896;2022-08-01T01:15:17;16.30;99.90
21189;DHT22;39071;52.420;20.896;2022-08-01T01:18:38;16.30;99.90
21189;DHT22;39071;52.420;20.896;2022-08-01T01:26:45;16.20;99.90
21189;DHT22;39071;52.420;20.896;2022-08-01T01:29:28;16.20;99.90
21189;DHT22;39071;52.420;20.896;2022-08-01T01:32:09;16.20;99.90
21189;DHT22;39071;52.420;20.896;2022-08-01T01:34:40;16.10;99.90
21189;DHT22;39071;52.420;20.896;2022-08-01T01:37:16;16.10;99.90
21189;DHT22;39071;52.420;20.896;2022-08-01T01:39:43;16.10;99.90
21189;DHT22;39071;52.420;20.896;2022-08-01T01:42:13;16.10;99.90
21189;DHT22;39071;52.420;20.896;2022-08-01T01:44:40;16.10;99.90
21189;DHT22;39071;52.420;20.896;2022-08-01T01:47:06;16.00;99.90
21189;DHT22;39071;52.420;20.896;2022-08-01T01:49:33;16.00;99.90
21189;DHT22;39071;52.420;20.896;2022-08-01T01:52:00;16.00;99.90
21189;DHT22;39071;52.420;20.896;2022-08-01T01:54:39;16.00;99.90
21189;DHT22;39071;52.420;20.896;2022-08-01T01:57:07;16.00;99.90
21189;DHT22;39071;52.420;20.896;2022-08-01T01:59:36;15.90;99.90
21189;DHT22;39071;52.420;20.896;2022-08-01T02:02:04;15.90;99.90
21189;DHT22;39071;52.420;20.896;2022-08-01T02:04:31;15.90;99.90
21189;DHT22;39071;52.420;20.896;2022-08-01T02:06:59;15.90;99.90
21189;DHT22;39071;52.420;20.896;2022-08-01T02:09:27;15.80;99.90
21189;DHT22;39071;52.420;20.896;2022-08-01T02:11:54;15.80;99.90
21189;DHT22;39071;52.420;20.896;2022-08-01T02:14:22;15.80;99.90
21189;DHT22;39071;52.420;20.896;2022-08-01T02:16:49;15.70;99.90
21189;DHT22;39071;52.420;20.896;2022-08-01T02:19:19;15.60;99.90
21189;DHT22;39071;52.420;20.896;2022-08-01T02:22:15;15.60;99.90
21189;DHT22;39071;52.420;20.896;2022-08-01T02:24:52;15.50;99.90
21189;DHT22;39071;52.420;20.896;2022-08-01T02:27:59;15.40;99.90
21189;DHT22;39071;52.420;20.896;2022-08-01T02:30:30;15.40;99.90
21189;DHT22;39071;52.420;20.896;2022-08-01T02:33:06;15.30;99.90
21189;DHT22;39071;52.420;20.896;2022-08-01T02:35:37;15.30;99.90
21189;DHT22;39071;52.420;20.896;2022-08-01T02:38:05;15.20;99.90
21189;DHT22;39071;52.420;20.896;2022-08-01T02:40:33;15.20;99.90
21189;DHT22;39071;52.420;20.896;2022-08-01T02:43:02;15.20;99.90
21189;DHT22;39071;52.420;20.896;2022-08-01T02:45:29;15.10;99.90
21189;DHT22;39071;52.420;20.896;2022-08-01T02:48:01;15.10;99.90
21189;DHT22;39071;52.420;20.896;2022-08-01T02:50:29;15.00;99.90
21189;DHT22;39071;52.420;20.896;2022-08-01T02:52:58;15.00;99.90
21189;DHT22;39071;52.420;20.896;2022-08-01T02:55:24;14.90;99.90
21189;DHT22;39071;52.420;20.896;2022-08-01T02:57:52;14.90;99.90
21189;DHT22;39071;52.420;20.896;2022-08-01T03:00:19;14.80;99.90
21189;DHT22;39071;52.420;20.896;2022-08-01T03:02:45;14.80;99.90
21189;DHT22;39071;52.420;20.896;2022-08-01T03:05:14;14.70;99.90
21189;DHT22;39071;52.420;20.896;2022-08-01T03:07:41;14.70;99.90
21189;DHT22;39071;52.420;20.896;2022-08-01T03:10:08;14.60;99.90
21189;DHT22;39071;52.420;20.896;2022-08-01T03:12:34;14.60;99.90
21189;DHT22;39071;52.420;20.896;2022-08-01T03:15:03;14.60;99.90
21189;DHT22;39071;52.420;20.896;2022-08-01T03:17:30;14.60;99.90
21189;DHT22;39071;52.420;20.896;2022-08-01T03:19:58;14.60;99.90
21189;DHT22;39071;52.420;20.896;2022-08-01T03:22:26;14.50;99.90
21189;DHT22;39071;52.420;20.896;2022-08-01T03:24:53;14.50;99.90
21189;DHT22;39071;52.420;20.896;2022-08-01T03:27:23;14.50;99.90
21189;DHT22;39071;52.420;20.896;2022-08-01T03:29:51;14.50;99.90
21189;DHT22;39071;52.420;20.896;2022-08-01T03:32:18;14.50;99.90
21189;DHT22;39071;52.420;20.896;2022-08-01T03:34:45;14.50;99.90
21189;DHT22;39071;52.420;20.896;2022-08-01T03:37:29;14.50;99.90
21189;DHT22;39071;52.420;20.896;2022-08-01T03:40:11;14.50;99.90
21189;DHT22;39071;52.420;20.896;2022-08-01T03:42:45;14.50;99.90
21189;DHT22;39071;52.420;20.896;2022-08-01T03:45:19;14.50;99.90
21189;DHT22;39071;52.420;20.896;2022-08-01T03:47:47;14.50;99.90
21189;DHT22;39071;52.420;20.896;2022-08-01T03:50:15;14.50;99.90
21189;DHT22;39071;52.420;20.896;2022-08-01T03:52:44;14.60;99.90
21189;DHT22;39071;52.420;20.896;2022-08-01T03:55:11;14.60;99.90
21189;DHT22;39071;52.420;20.896;2022-08-01T03:57:38;14.60;99.90
21189;DHT22;39071;52.420;20.896;2022-08-01T04:00:06;14.60;99.90
21189;DHT22;39071;52.420;20.896;2022-08-01T04:02:34;14.70;99.90
21189;DHT22;39071;52.420;20.896;2022-08-01T04:05:00;14.70;99.90
21189;DHT22;39071;52.420;20.896;2022-08-01T04:07:28;14.80;99.90
21189;DHT22;39071;52.420;20.896;2022-08-01T04:09:54;14.80;99.90
21189;DHT22;39071;52.420;20.896;2022-08-01T04:12:20;14.90;99.90
21189;DHT22;39071;52.420;20.896;2022-08-01T04:14:46;14.90;99.90
21189;DHT22;39071;52.420;20.896;2022-08-01T04:17:12;15.10;99.90
21189;DHT22;39071;52.420;20.896;2022-08-01T04:19:38;15.10;99.90
21189;DHT22;39071;52.420;20.896;2022-08-01T04:22:05;15.10;99.90
21189;DHT22;39071;52.420;20.896;2022-08-01T04:24:32;15.20;99.90
21189;DHT22;39071;52.420;20.896;2022-08-01T04:27:01;15.20;99.90
21189;DHT22;39071;52.420;20.896;2022-08-01T04:29:30;15.30;99.90
21189;DHT22;39071;52.420;20.896;2022-08-01T04:31:58;15.40;99.90
21189;DHT22;39071;52.420;20.896;2022-08-01T04:34:28;15.40;99.90
21189;DHT22;39071;52.420;20.896;2022-08-01T04:36:57;15.40;99.90
21189;DHT22;39071;52.420;20.896;2022-08-01T04:39:28;15.50;99.90
21189;DHT22;39071;52.420;20.896;2022-08-01T04:41:58;15.60;99.90
21189;DHT22;39071;52.420;20.896;2022-08-01T04:44:26;15.60;99.90
21189;DHT22;39071;52.420;20.896;2022-08-01T04:46:53;15.60;99.90
21189;DHT22;39071;52.420;20.896;2022-08-01T04:49:21;15.70;99.90
21189;DHT22;39071;52.420;20.896;2022-08-01T04:51:51;15.70;99.90
21189;DHT22;39071;52.420;20.896;2022-08-01T04:54:18;15.70;99.90
21189;DHT22;39071;52.420;20.896;2022-08-01T04:56:43;15.80;99.90
21189;DHT22;39071;52.420;20.896;2022-08-01T04:59:09;15.70;99.90
21189;DHT22;39071;52.420;20.896;2022-08-01T05:01:53;15.80;99.90
21189;DHT22;39071;52.420;20.896;2022-08-01T05:04:19;15.90;99.90
21189;DHT22;39071;52.420;20.896;2022-08-01T05:06:45;15.90;99.90
21189;DHT22;39071;52.420;20.896;2022-08-01T05:09:10;15.90;99.90
21189;DHT22;39071;52.420;20.896;2022-08-01T05:11:36;15.90;99.90
21189;DHT22;39071;52.420;20.896;2022-08-01T05:14:01;16.00;99.90
21189;DHT22;39071;52.420;20.896;2022-08-01T05:16:27;15.90;99.90
21189;DHT22;39071;52.420;20.896;2022-08-01T05:18:53;16.00;99.90
21189;DHT22;39071;52.420;20.896;2022-08-01T05:21:18;16.30;99.90
21189;DHT22;39071;52.420;20.896;2022-08-01T05:23:44;16.70;99.90
21189;DHT22;39071;52.420;20.896;2022-08-01T05:26:10;17.40;99.90
21189;DHT22;39071;52.420;20.896;2022-08-01T05:28:36;18.30;99.90
21189;DHT22;39071;52.420;20.896;2022-08-01T05:31:03;19.20;99.90
21189;DHT22;39071;52.420;20.896;2022-08-01T05:33:28;19.90;1.00
21189;DHT22;39071;52.420;20.896;2022-08-01T05:35:54;20.40;1.00
21189;DHT22;39071;52.420;20.896;2022-08-01T05:38:20;20.70;99.90
21189;DHT22;39071;52.420;20.896;2022-08-01T05:40:45;21.00;1.00
21189;DHT22;39071;52.420;20.896;2022-08-01T05:43:11;21.30;1.00
21189;DHT22;39071;52.420;20.896;2022-08-01T05:45:37;21.80;99.90
21189;DHT22;39071;52.420;20.896;2022-08-01T05:48:03;22.30;99.90
21189;DHT22;39071;52.420;20.896;2022-08-01T05:50:28;23.30;1.00
21189;DHT22;39071;52.420;20.896;2022-08-01T05:52:54;24.40;1.00
21189;DHT22;39071;52.420;20.896;2022-08-01T05:55:20;24.80;1.00
21189;DHT22;39071;52.420;20.896;2022-08-01T05:57:45;25.30;1.00
21189;DHT22;39071;52.420;20.896;2022-08-01T06:00:11;26.60;99.90
21189;DHT22;39071;52.420;20.896;2022-08-01T06:02:42;27.90;99.90
21189;DHT22;39071;52.420;20.896;2022-08-01T06:05:09;28.00;99.90
21189;DHT22;39071;52.420;20.896;2022-08-01T06:07:35;27.70;99.90
21189;DHT22;39071;52.420;20.896;2022-08-01T06:10:00;27.50;99.90
21189;DHT22;39071;52.420;20.896;2022-08-01T06:12:26;28.30;99.90
21189;DHT22;39071;52.420;20.896;2022-08-01T06:14:52;28.50;99.90
21189;DHT22;39071;52.420;20.896;2022-08-01T06:17:17;29.20;99.90
21189;DHT22;39071;52.420;20.896;2022-08-01T06:19:43;30.00;99.90
21189;DHT22;39071;52.420;20.896;2022-08-01T06:22:09;30.10;99.90
21189;DHT22;39071;52.420;20.896;2022-08-01T06:24:34;29.80;97.10
21189;DHT22;39071;52.420;20.896;2022-08-01T06:27:00;27.50;90.20
21189;DHT22;39071;52.420;20.896;2022-08-01T06:29:25;27.10;99.90
21189;DHT22;39071;52.420;20.896;2022-08-01T06:31:51;25.90;99.90
21189;DHT22;39071;52.420;20.896;2022-08-01T06:34:17;27.30;99.90
21189;DHT22;39071;52.420;20.896;2022-08-01T06:36:43;27.20;99.90
21189;DHT22;39071;52.420;20.896;2022-08-01T06:39:08;28.90;99.90
21189;DHT22;39071;52.420;20.896;2022-08-01T06:41:34;30.00;99.90
21189;DHT22;39071;52.420;20.896;2022-08-01T06:44:00;30.60;65.30
21189;DHT22;39071;52.420;20.896;2022-08-01T06:46:27;30.30;31.90
21189;DHT22;39071;52.420;20.896;2022-08-01T06:48:53;30.90;9.00
21189;DHT22;39071;52.420;20.896;2022-08-01T06:51:19;29.80;1.00
21189;DHT22;39071;52.420;20.896;2022-08-01T06:53:46;31.40;1.00
21189;DHT22;39071;52.420;20.896;2022-08-01T06:56:11;32.10;1.00
21189;DHT22;39071;52.420;20.896;2022-08-01T06:58:37;32.10;1.00
21189;DHT22;39071;52.420;20.896;2022-08-01T07:01:04;33.10;1.00
21189;DHT22;39071;52.420;20.896;2022-08-01T07:03:34;33.60;1.00
21189;DHT22;39071;52.420;20.896;2022-08-01T07:06:00;33.50;1.00
21189;DHT22;39071;52.420;20.896;2022-08-01T07:08:26;33.10;1.00
21189;DHT22;39071;52.420;20.896;2022-08-01T07:10:51;32.50;1.00
21189;DHT22;39071;52.420;20.896;2022-08-01T07:13:17;33.70;1.00
21189;DHT22;39071;52.420;20.896;2022-08-01T07:15:47;33.30;1.00
21189;DHT22;39071;52.420;20.896;2022-08-01T07:18:13;33.30;1.00
21189;DHT22;39071;52.420;20.896;2022-08-01T07:20:38;33.70;1.00
21189;DHT22;39071;52.420;20.896;2022-08-01T07:23:04;34.30;1.00
21189;DHT22;39071;52.420;20.896;2022-08-01T07:25:30;33.00;1.00
21189;DHT22;39071;52.420;20.896;2022-08-01T07:27:57;32.10;1.00
21189;DHT22;39071;52.420;20.896;2022-08-01T07:30:23;34.10;1.00
21189;DHT22;39071;52.420;20.896;2022-08-01T07:32:48;35.10;1.00
21189;DHT22;39071;52.420;20.896;2022-08-01T07:35:14;35.40;1.00
21189;DHT22;39071;52.420;20.896;2022-08-01T07:37:40;35.20;1.00
21189;DHT22;39071;52.420;20.896;2022-08-01T07:40:06;35.20;1.00
21189;DHT22;39071;52.420;20.896;2022-08-01T07:42:32;34.60;1.00
21189;DHT22;39071;52.420;20.896;2022-08-01T07:44:57;34.50;1.00
21189;DHT22;39071;52.420;20.896;2022-08-01T07:47:26;34.60;1.00
21189;DHT22;39071;52.420;20.896;2022-08-01T07:49:58;34.90;1.00
21189;DHT22;39071;52.420;20.896;2022-08-01T07:52:24;35.90;1.00
21189;DHT22;39071;52.420;20.896;2022-08-01T07:54:50;34.70;1.00
21189;DHT22;39071;52.420;20.896;2022-08-01T07:57:15;34.60;1.00
21189;DHT22;39071;52.420;20.896;2022-08-01T07:59:41;33.50;1.00
21189;DHT22;39071;52.420;20.896;2022-08-01T08:02:07;32.80;1.00
21189;DHT22;39071;52.420;20.896;2022-08-01T08:04:33;33.70;1.00
21189;DHT22;39071;52.420;20.896;2022-08-01T08:06:58;33.80;1.00
21189;DHT22;39071;52.420;20.896;2022-08-01T08:09:24;34.30;1.00
21189;DHT22;39071;52.420;20.896;2022-08-01T08:11:50;34.70;1.00
21189;DHT22;39071;52.420;20.896;2022-08-01T08:14:16;33.20;1.00
21189;DHT22;39071;52.420;20.896;2022-08-01T08:16:42;34.70;1.00
21189;DHT22;39071;52.420;20.896;2022-08-01T08:19:08;34.20;1.00
21189;DHT22;39071;52.420;20.896;2022-08-01T08:21:34;34.60;1.00
21189;DHT22;39071;52.420;20.896;2022-08-01T08:23:59;34.20;1.00
21189;DHT22;39071;52.420;20.896;2022-08-01T08:26:43;35.10;1.00
21189;DHT22;39071;52.420;20.896;2022-08-01T08:29:09;35.80;1.00
21189;DHT22;39071;52.420;20.896;2022-08-01T08:31:35;34.50;1.00
21189;DHT22;39071;52.420;20.896;2022-08-01T08:34:00;34.70;1.00
21189;DHT22;39071;52.420;20.896;2022-08-01T08:36:26;35.10;1.00
21189;DHT22;39071;52.420;20.896;2022-08-01T08:38:52;35.20;1.00
21189;DHT22;39071;52.420;20.896;2022-08-01T08:41:18;35.40;1.00
21189;DHT22;39071;52.420;20.896;2022-08-01T08:43:44;34.80;1.00
21189;DHT22;39071;52.420;20.896;2022-08-01T08:46:11;33.10;1.00
21189;DHT22;39071;52.420;20.896;2022-08-01T08:48:40;32.50;1.00
21189;DHT22;39071;52.420;20.896;2022-08-01T08:51:06;30.50;1.00
21189;DHT22;39071;52.420;20.896;2022-08-01T08:53:35;30.70;1.00
21189;DHT22;39071;52.420;20.896;2022-08-01T08:56:02;31.70;1.00
21189;DHT22;39071;52.420;20.896;2022-08-01T08:58:28;30.60;1.00
21189;DHT22;39071;52.420;20.896;2022-08-01T09:00:58;30.20;1.00
21189;DHT22;39071;52.420;20.896;2022-08-01T09:03:24;30.20;1.00
21189;DHT22;39071;52.420;20.896;2022-08-01T09:05:49;30.70;1.00
21189;DHT22;39071;52.420;20.896;2022-08-01T09:08:15;30.60;1.00
21189;DHT22;39071;52.420;20.896;2022-08-01T09:10:41;30.80;1.00
21189;DHT22;39071;52.420;20.896;2022-08-01T09:13:13;31.10;1.00
21189;DHT22;39071;52.420;20.896;2022-08-01T09:15:51;31.60;1.00
21189;DHT22;39071;52.420;20.896;2022-08-01T09:21:21;29.50;1.00
21189;DHT22;39071;52.420;20.896;2022-08-01T09:23:51;29.60;1.00
21189;DHT22;39071;52.420;20.896;2022-08-01T09:26:35;30.00;1.00
21189;DHT22;39071;52.420;20.896;2022-08-01T09:29:04;29.40;1.00
21189;DHT22;39071;52.420;20.896;2022-08-01T09:31:40;29.50;1.00
21189;DHT22;39071;52.420;20.896;2022-08-01T09:34:07;28.50;1.00
21189;DHT22;39071;52.420;20.896;2022-08-01T09:37:01;28.90;1.00
21189;DHT22;39071;52.420;20.896;2022-08-01T09:39:29;28.70;1.00
21189;DHT22;39071;52.420;20.896;2022-08-01T09:41:56;28.40;1.00
21189;DHT22;39071;52.420;20.896;2022-08-01T09:44:42;27.80;1.00
21189;DHT22;39071;52.420;20.896;2022-08-01T09:47:08;27.30;1.00
21189;DHT22;39071;52.420;20.896;2022-08-01T09:49:35;27.10;1.00
21189;DHT22;39071;52.420;20.896;2022-08-01T09:52:18;27.10;1.00
21189;DHT22;39071;52.420;20.896;2022-08-01T09:54:55;27.50;1.00
21189;DHT22;39071;52.420;20.896;2022-08-01T09:57:21;28.00;1.00
21189;DHT22;39071;52.420;20.896;2022-08-01T09:59:51;28.70;1.00
21189;DHT22;39071;52.420;20.896;2022-08-01T10:02:36;28.40;1.00
21189;DHT22;39071;52.420;20.896;2022-08-01T10:05:09;28.30;1.00
21189;DHT22;39071;52.420;20.896;2022-08-01T10:07:55;28.10;1.00
21189;DHT22;39071;52.420;20.896;2022-08-01T10:10:21;28.30;1.00
21189;DHT22;39071;52.420;20.896;2022-08-01T10:12:47;28.30;1.00
21189;DHT22;39071;52.420;20.896;2022-08-01T10:15:15;28.30;1.00
21189;DHT22;39071;52.420;20.896;2022-08-01T10:17:49;28.30;1.00
21189;DHT22;39071;52.420;20.896;2022-08-01T10:20:24;28.50;1.00
21189;DHT22;39071;52.420;20.896;2022-08-01T10:22:51;28.30;1.00
21189;DHT22;39071;52.420;20.896;2022-08-01T10:25:20;28.50;1.00
21189;DHT22;39071;52.420;20.896;2022-08-01T10:27:49;28.50;1.00
21189;DHT22;39071;52.420;20.896;2022-08-01T10:30:15;28.20;1.00
21189;DHT22;39071;52.420;20.896;2022-08-01T10:32:42;28.50;1.00
21189;DHT22;39071;52.420;20.896;2022-08-01T10:35:09;28.40;1.00
21189;DHT22;39071;52.420;20.896;2022-08-01T10:37:35;28.60;1.00
21189;DHT22;39071;52.420;20.896;2022-08-01T10:40:01;28.80;1.00
21189;DHT22;39071;52.420;20.896;2022-08-01T10:42:27;29.00;1.00
21189;DHT22;39071;52.420;20.896;2022-08-01T10:44:54;29.00;1.00
21189;DHT22;39071;52.420;20.896;2022-08-01T10:47:29;29.10;1.00
21189;DHT22;39071;52.420;20.896;2022-08-01T10:50:15;29.20;1.00
21189;DHT22;39071;52.420;20.896;2022-08-01T10:53:15;29.30;1.00
21189;DHT22;39071;52.420;20.896;2022-08-01T11:03:42;27.50;1.00
21189;DHT22;39071;52.420;20.896;2022-08-01T11:06:17;27.60;1.00
21189;DHT22;39071;52.420;20.896;2022-08-01T11:08:53;27.60;1.00
21189;DHT22;39071;52.420;20.896;2022-08-01T11:11:20;27.80;1.00
21189;DHT22;39071;52.420;20.896;2022-08-01T11:14:04;28.50;1.00
21189;DHT22;39071;52.420;20.896;2022-08-01T11:16:36;28.80;1.00
21189;DHT22;39071;52.420;20.896;2022-08-01T11:19:04;28.90;1.00
21189;DHT22;39071;52.420;20.896;2022-08-01T11:27:31;29.00;1.00
21189;DHT22;39071;52.420;20.896;2022-08-01T11:32:55;28.30;1.00
21189;DHT22;39071;52.420;20.896;2022-08-01T11:35:25;28.50;1.00
21189;DHT22;39071;52.420;20.896;2022-08-01T11:37:53;28.70;1.00
21189;DHT22;39071;52.420;20.896;2022-08-01T11:40:24;28.90;1.00
21189;DHT22;39071;52.420;20.896;2022-08-01T11:45:52;29.30;1.00
21189;DHT22;39071;52.420;20.896;2022-08-01T11:48:21;29.40;1.00
21189;DHT22;39071;52.420;20.896;2022-08-01T11:50:55;29.10;1.00
21189;DHT22;39071;52.420;20.896;2022-08-01T11:53:21;29.20;1.00
21189;DHT22;39071;52.420;20.896;2022-08-01T11:55:49;29.40;1.00
21189;DHT22;39071;52.420;20.896;2022-08-01T11:58:20;29.70;1.00
21189;DHT22;39071;52.420;20.896;2022-08-01T12:00:54;29.60;1.00
21189;DHT22;39071;52.420;20.896;2022-08-01T12:03:27;29.40;1.00
21189;DHT22;39071;52.420;20.896;2022-08-01T12:05:54;29.10;1.00
21189;DHT22;39071;52.420;20.896;2022-08-01T12:08:28;29.10;1.00
21189;DHT22;39071;52.420;20.896;2022-08-01T12:10:54;29.10;1.00
21189;DHT22;39071;52.420;20.896;2022-08-01T12:13:21;28.40;1.00
21189;DHT22;39071;52.420;20.896;2022-08-01T12:15:47;28.50;1.00
21189;DHT22;39071;52.420;20.896;2022-08-01T12:18:13;28.70;1.00
21189;DHT22;39071;52.420;20.896;2022-08-01T12:20:41;28.60;1.00
21189;DHT22;39071;52.420;20.896;2022-08-01T12:23:13;28.30;1.00
21189;DHT22;39071;52.420;20.896;2022-08-01T12:25:40;28.10;1.00
21189;DHT22;39071;52.420;20.896;2022-08-01T12:28:10;28.30;1.00
21189;DHT22;39071;52.420;20.896;2022-08-01T12:30:37;28.30;1.00
21189;DHT22;39071;52.420;20.896;2022-08-01T12:33:10;28.50;1.00
21189;DHT22;39071;52.420;20.896;2022-08-01T12:35:41;28.90;1.00
21189;DHT22;39071;52.420;20.896;2022-08-01T12:38:14;28.80;1.00
21189;DHT22;39071;52.420;20.896;2022-08-01T12:40:43;28.90;1.00
21189;DHT22;39071;52.420;20.896;2022-08-01T12:43:09;28.70;1.00
21189;DHT22;39071;52.420;20.896;2022-08-01T12:45:45;28.70;1.00
21189;DHT22;39071;52.420;20.896;2022-08-01T12:48:15;29.00;1.00
21189;DHT22;39071;52.420;20.896;2022-08-01T12:50:43;29.00;1.00
21189;DHT22;39071;52.420;20.896;2022-08-01T12:53:10;29.10;1.00
21189;DHT22;39071;52.420;20.896;2022-08-01T12:55:46;28.90;1.00
21189;DHT22;39071;52.420;20.896;2022-08-01T12:58:13;28.60;1.00
21189;DHT22;39071;52.420;20.896;2022-08-01T13:00:40;28.50;1.00
21189;DHT22;39071;52.420;20.896;2022-08-01T13:03:16;28.60;1.00
21189;DHT22;39071;52.420;20.896;2022-08-01T13:08:15;28.50;1.00
21189;DHT22;39071;52.420;20.896;2022-08-01T13:10:41;28.40;1.00
21189;DHT22;39071;52.420;20.896;2022-08-01T13:13:08;28.20;1.00
21189;DHT22;39071;52.420;20.896;2022-08-01T13:15:36;28.10;1.00
21189;DHT22;39071;52.420;20.896;2022-08-01T13:18:30;28.10;1.00
21189;DHT22;39071;52.420;20.896;2022-08-01T13:21:27;28.30;1.00
21189;DHT22;39071;52.420;20.896;2022-08-01T13:24:07;28.50;1.00
21189;DHT22;39071;52.420;20.896;2022-08-01T13:27:04;28.30;1.00
21189;DHT22;39071;52.420;20.896;2022-08-01T13:29:37;28.40;1.00
21189;DHT22;39071;52.420;20.896;2022-08-01T13:32:20;28.50;1.00
21189;DHT22;39071;52.420;20.896;2022-08-01T13:34:46;28.60;1.00
21189;DHT22;39071;52.420;20.896;2022-08-01T13:37:12;28.70;1.00
21189;DHT22;39071;52.420;20.896;2022-08-01T13:39:38;28.80;1.00
21189;DHT22;39071;52.420;20.896;2022-08-01T13:42:14;28.70;1.00
21189;DHT22;39071;52.420;20.896;2022-08-01T13:44:41;28.50;1.00
21189;DHT22;39071;52.420;20.896;2022-08-01T13:47:07;28.30;1.00
21189;DHT22;39071;52.420;20.896;2022-08-01T13:49:33;28.30;1.00
21189;DHT22;39071;52.420;20.896;2022-08-01T13:52:01;28.20;1.00
21189;DHT22;39071;52.420;20.896;2022-08-01T13:54:27;27.70;1.00
21189;DHT22;39071;52.420;20.896;2022-08-01T13:56:53;27.70;1.00
21189;DHT22;39071;52.420;20.896;2022-08-01T13:59:19;27.60;1.00
21189;DHT22;39071;52.420;20.896;2022-08-01T14:01:45;27.60;1.00
21189;DHT22;39071;52.420;20.896;2022-08-01T14:04:12;27.50;1.00
21189;DHT22;39071;52.420;20.896;2022-08-01T14:06:37;27.60;1.00
21189;DHT22;39071;52.420;20.896;2022-08-01T14:09:04;27.50;1.00
21189;DHT22;39071;52.420;20.896;2022-08-01T14:11:30;27.40;1.00
21189;DHT22;39071;52.420;20.896;2022-08-01T14:13:55;27.40;1.00
21189;DHT22;39071;52.420;20.896;2022-08-01T14:16:21;27.40;1.00
21189;DHT22;39071;52.420;20.896;2022-08-01T14:18:47;27.40;1.00
21189;DHT22;39071;52.420;20.896;2022-08-01T14:21:13;27.40;1.00
21189;DHT22;39071;52.420;20.896;2022-08-01T14:23:40;27.30;1.00
21189;DHT22;39071;52.420;20.896;2022-08-01T14:26:07;27.30;1.00
21189;DHT22;39071;52.420;20.896;2022-08-01T14:28:33;27.40;1.00
21189;DHT22;39071;52.420;20.896;2022-08-01T14:30:59;27.40;1.00
21189;DHT22;39071;52.420;20.896;2022-08-01T14:33:25;27.50;1.00
21189;DHT22;39071;52.420;20.896;2022-08-01T14:35:52;27.60;1.00
21189;DHT22;39071;52.420;20.896;2022-08-01T14:38:17;27.50;1.00
21189;DHT22;39071;52.420;20.896;2022-08-01T14:40:43;27.50;1.00
21189;DHT22;39071;52.420;20.896;2022-08-01T14:43:12;27.60;1.00
21189;DHT22;39071;52.420;20.896;2022-08-01T14:45:39;27.50;1.00
21189;DHT22;39071;52.420;20.896;2022-08-01T14:48:05;27.40;1.00
21189;DHT22;39071;52.420;20.896;2022-08-01T14:50:31;27.40;1.00
21189;DHT22;39071;52.420;20.896;2022-08-01T14:52:56;27.30;1.00
21189;DHT22;39071;52.420;20.896;2022-08-01T14:55:22;27.30;1.00
21189;DHT22;39071;52.420;20.896;2022-08-01T14:57:50;27.30;1.00
21189;DHT22;39071;52.420;20.896;2022-08-01T15:00:16;27.60;1.00
21189;DHT22;39071;52.420;20.896;2022-08-01T15:02:42;27.70;1.00
21189;DHT22;39071;52.420;20.896;2022-08-01T15:05:08;27.70;1.00
21189;DHT22;39071;52.420;20.896;2022-08-01T15:07:35;27.70;1.00
21189;DHT22;39071;52.420;20.896;2022-08-01T15:10:03;27.70;1.00
21189;DHT22;39071;52.420;20.896;2022-08-01T15:12:28;27.60;1.00
21189;DHT22;39071;52.420;20.896;2022-08-01T15:14:54;27.50;1.00
21189;DHT22;39071;52.420;20.896;2022-08-01T15:17:38;27.40;1.00
21189;DHT22;39071;52.420;20.896;2022-08-01T15:20:06;27.40;1.00
21189;DHT22;39071;52.420;20.896;2022-08-01T15:22:32;27.50;1.00
21189;DHT22;39071;52.420;20.896;2022-08-01T15:24:59;27.50;1.00
21189;DHT22;39071;52.420;20.896;2022-08-01T15:27:26;27.50;1.00
21189;DHT22;39071;52.420;20.896;2022-08-01T15:29:53;27.40;1.00
21189;DHT22;39071;52.420;20.896;2022-08-01T15:32:19;27.40;1.00
21189;DHT22;39071;52.420;20.896;2022-08-01T15:34:45;27.30;1.00
21189;DHT22;39071;52.420;20.896;2022-08-01T15:37:11;27.20;1.00
21189;DHT22;39071;52.420;20.896;2022-08-01T15:39:38;27.10;1.00
21189;DHT22;39071;52.420;20.896;2022-08-01T15:42:07;27.00;1.00
21189;DHT22;39071;52.420;20.896;2022-08-01T15:44:33;26.90;1.00
21189;DHT22;39071;52.420;20.896;2022-08-01T15:47:00;26.90;1.00
21189;DHT22;39071;52.420;20.896;2022-08-01T15:49:27;26.80;1.00
21189;DHT22;39071;52.420;20.896;2022-08-01T15:51:53;26.70;1.00
21189;DHT22;39071;52.420;20.896;2022-08-01T15:54:19;26.60;1.00
21189;DHT22;39071;52.420;20.896;2022-08-01T15:56:45;26.60;1.00
21189;DHT22;39071;52.420;20.896;2022-08-01T15:59:10;26.50;1.00
21189;DHT22;39071;52.420;20.896;2022-08-01T16:01:37;26.40;1.00
21189;DHT22;39071;52.420;20.896;2022-08-01T16:04:04;26.30;1.00
21189;DHT22;39071;52.420;20.896;2022-08-01T16:06:30;26.40;1.00
21189;DHT22;39071;52.420;20.896;2022-08-01T16:08:56;26.30;1.00
21189;DHT22;39071;52.420;20.896;2022-08-01T16:11:23;26.30;1.00